sensor_id;sensor_type;location;lat;lon;timestamp;P1;durP1;ratioP1;P2;durP2;ratioP2
17488;SDS011;8861;52.644;4.734;2023-11-22T00:02:23;12.17;;;8.13;;
17488;SDS011;8861;52.644;4.734;2023-11-22T00:04:54;11.03;;;8.10;;
17488;SDS011;8861;52.644;4.734;2023-11-22T00:07:20;12.43;;;8.40;;
17488;SDS011;8861;52.644;4.734;2023-11-22T00:09:49;11.63;;;8.43;;
17488;SDS011;8861;52.644;4.734;2023-11-22T00:12:17;11.53;;;8.20;;
17488;SDS011;8861;52.644;4.734;2023-11-22T00:14:44;14.93;;;9.73;;
17488;SDS011;8861;52.644;4.734;2023-11-22T00:17:12;15.53;;;9.47;;
17488;SDS011;8861;52.644;4.734;2023-11-22T00:19:39;14.90;;;8.93;;
17488;SDS011;8861;52.644;4.734;2023-11-22T00:22:06;12.30;;;8.90;;
17488;SDS011;8861;52.644;4.734;2023-11-22T00:24:38;13.70;;;8.90;;
17488;SDS011;8861;52.644;4.734;2023-11-22T00:27:07;13.93;;;9.17;;
17488;SDS011;8861;52.644;4.734;2023-11-22T00:29:35;14.77;;;9.20;;
17488;SDS011;8861;52.644;4.734;2023-11-22T00:32:02;13.20;;;9.10;;
17488;SDS011;8861;52.644;4.734;2023-11-22T00:34:29;14.87;;;9.60;;
17488;SDS011;8861;52.644;4.734;2023-11-22T00:36:56;13.57;;;9.27;;
17488;SDS011;8861;52.644;4.734;2023-11-22T00:39:23;12.10;;;8.83;;
17488;SDS011;8861;52.644;4.734;2023-11-22T00:41:50;12.77;;;8.77;;
17488;SDS011;8861;52.644;4.734;2023-11-22T00:44:19;13.37;;;9.07;;
17488;SDS011;8861;52.644;4.734;2023-11-22T00:46:46;16.87;;;9.23;;
17488;SDS011;8861;52.644;4.734;2023-11-22T00:49:13;14.87;;;9.77;;
17488;SDS011;8861;52.644;4.734;2023-11-22T00:51:40;13.87;;;9.20;;
17488;SDS011;8861;52.644;4.734;2023-11-22T00:54:07;13.60;;;8.93;;
17488;SDS011;8861;52.644;4.734;2023-11-22T00:56:34;13.37;;;8.87;;
17488;SDS011;8861;52.644;4.734;2023-11-22T00:59:01;14.50;;;9.17;;
17488;SDS011;8861;52.644;4.734;2023-11-22T01:01:30;12.57;;;8.73;;
17488;SDS011;8861;52.644;4.734;2023-11-22T01:03:57;12.70;;;9.07;;
17488;SDS011;8861;52.644;4.734;2023-11-22T01:06:24;11.70;;;8.67;;
17488;SDS011;8861;52.644;4.734;2023-11-22T01:08:51;13.20;;;8.33;;
17488;SDS011;8861;52.644;4.734;2023-11-22T01:11:17;11.53;;;8.17;;
17488;SDS011;8861;52.644;4.734;2023-11-22T01:13:44;11.90;;;8.60;;
17488;SDS011;8861;52.644;4.734;2023-11-22T01:16:12;12.77;;;8.57;;
17488;SDS011;8861;52.644;4.734;2023-11-22T01:18:40;11.50;;;8.53;;
17488;SDS011;8861;52.644;4.734;2023-11-22T01:21:08;13.33;;;8.53;;
17488;SDS011;8861;52.644;4.734;2023-11-22T01:23:35;13.03;;;8.60;;
17488;SDS011;8861;52.644;4.734;2023-11-22T01:26:02;13.67;;;9.27;;
17488;SDS011;8861;52.644;4.734;2023-11-22T01:28:30;16.53;;;9.50;;
17488;SDS011;8861;52.644;4.734;2023-11-22T01:30:59;15.33;;;9.57;;
17488;SDS011;8861;52.644;4.734;2023-11-22T01:33:26;13.27;;;9.43;;
17488;SDS011;8861;52.644;4.734;2023-11-22T01:35:55;14.73;;;9.73;;
17488;SDS011;8861;52.644;4.734;2023-11-22T01:38:22;13.17;;;9.10;;
17488;SDS011;8861;52.644;4.734;2023-11-22T01:40:50;14.53;;;9.60;;
17488;SDS011;8861;52.644;4.734;2023-11-22T01:43:18;14.60;;;9.37;;
17488;SDS011;8861;52.644;4.734;2023-11-22T01:45:46;15.07;;;9.73;;
17488;SDS011;8861;52.644;4.734;2023-11-22T01:48:13;13.20;;;9.20;;
17488;SDS011;8861;52.644;4.734;2023-11-22T01:50:41;13.50;;;9.03;;
17488;SDS011;8861;52.644;4.734;2023-11-22T01:53:11;13.93;;;9.13;;
17488;SDS011;8861;52.644;4.734;2023-11-22T01:55:39;14.00;;;9.50;;
17488;SDS011;8861;52.644;4.734;2023-11-22T01:58:07;15.67;;;9.40;;
17488;SDS011;8861;52.644;4.734;2023-11-22T02:00:35;14.87;;;9.47;;
17488;SDS011;8861;52.644;4.734;2023-11-22T02:03:08;14.40;;;9.27;;
17488;SDS011;8861;52.644;4.734;2023-11-22T02:05:35;14.77;;;9.57;;
17488;SDS011;8861;52.644;4.734;2023-11-22T02:08:02;14.90;;;9.33;;
17488;SDS011;8861;52.644;4.734;2023-11-22T02:10:30;13.23;;;8.63;;
17488;SDS011;8861;52.644;4.734;2023-11-22T02:12:58;13.23;;;8.80;;
17488;SDS011;8861;52.644;4.734;2023-11-22T02:15:29;12.63;;;8.80;;
17488;SDS011;8861;52.644;4.734;2023-11-22T02:17:56;13.40;;;9.20;;
17488;SDS011;8861;52.644;4.734;2023-11-22T02:20:24;14.73;;;9.33;;
17488;SDS011;8861;52.644;4.734;2023-11-22T02:22:51;13.17;;;9.13;;
17488;SDS011;8861;52.644;4.734;2023-11-22T02:25:20;11.50;;;8.10;;
17488;SDS011;8861;52.644;4.734;2023-11-22T02:27:47;14.33;;;8.93;;
17488;SDS011;8861;52.644;4.734;2023-11-22T02:30:14;13.50;;;8.67;;
17488;SDS011;8861;52.644;4.734;2023-11-22T02:32:41;14.43;;;9.63;;
17488;SDS011;8861;52.644;4.734;2023-11-22T02:35:09;12.87;;;8.57;;
17488;SDS011;8861;52.644;4.734;2023-11-22T02:37:36;12.43;;;8.97;;
17488;SDS011;8861;52.644;4.734;2023-11-22T02:40:05;14.03;;;9.10;;
17488;SDS011;8861;52.644;4.734;2023-11-22T02:42:37;12.43;;;8.43;;
17488;SDS011;8861;52.644;4.734;2023-11-22T02:45:04;12.63;;;8.50;;
17488;SDS011;8861;52.644;4.734;2023-11-22T02:47:32;13.53;;;8.80;;
17488;SDS011;8861;52.644;4.734;2023-11-22T02:50:00;14.27;;;9.17;;
17488;SDS011;8861;52.644;4.734;2023-11-22T02:52:27;12.57;;;8.93;;
17488;SDS011;8861;52.644;4.734;2023-11-22T02:54:54;13.13;;;8.77;;
17488;SDS011;8861;52.644;4.734;2023-11-22T02:57:21;14.53;;;9.20;;
17488;SDS011;8861;52.644;4.734;2023-11-22T02:59:50;13.23;;;9.00;;
17488;SDS011;8861;52.644;4.734;2023-11-22T03:02:17;12.67;;;8.87;;
17488;SDS011;8861;52.644;4.734;2023-11-22T03:04:44;14.20;;;9.27;;
17488;SDS011;8861;52.644;4.734;2023-11-22T03:07:11;15.10;;;9.63;;
17488;SDS011;8861;52.644;4.734;2023-11-22T03:09:38;13.73;;;9.50;;
17488;SDS011;8861;52.644;4.734;2023-11-22T03:12:06;13.30;;;9.00;;
17488;SDS011;8861;52.644;4.734;2023-11-22T03:14:34;13.97;;;9.17;;
17488;SDS011;8861;52.644;4.734;2023-11-22T03:17:03;14.63;;;9.27;;
17488;SDS011;8861;52.644;4.734;2023-11-22T03:19:30;12.73;;;8.83;;
17488;SDS011;8861;52.644;4.734;2023-11-22T03:21:59;13.37;;;8.73;;
17488;SDS011;8861;52.644;4.734;2023-11-22T03:24:28;13.50;;;9.30;;
17488;SDS011;8861;52.644;4.734;2023-11-22T03:26:55;13.60;;;9.30;;
17488;SDS011;8861;52.644;4.734;2023-11-22T03:29:24;13.37;;;9.13;;
17488;SDS011;8861;52.644;4.734;2023-11-22T03:31:51;12.83;;;8.77;;
17488;SDS011;8861;52.644;4.734;2023-11-22T03:34:20;12.40;;;8.70;;
17488;SDS011;8861;52.644;4.734;2023-11-22T03:36:47;13.73;;;9.10;;
17488;SDS011;8861;52.644;4.734;2023-11-22T03:39:14;12.63;;;8.50;;
17488;SDS011;8861;52.644;4.734;2023-11-22T03:41:41;11.93;;;8.10;;
17488;SDS011;8861;52.644;4.734;2023-11-22T03:44:09;12.27;;;8.47;;
17488;SDS011;8861;52.644;4.734;2023-11-22T03:46:36;13.53;;;9.40;;
17488;SDS011;8861;52.644;4.734;2023-11-22T03:49:03;13.67;;;9.50;;
17488;SDS011;8861;52.644;4.734;2023-11-22T03:51:33;12.93;;;9.17;;
17488;SDS011;8861;52.644;4.734;2023-11-22T03:54:01;13.63;;;9.20;;
17488;SDS011;8861;52.644;4.734;2023-11-22T03:56:29;12.07;;;8.70;;
17488;SDS011;8861;52.644;4.734;2023-11-22T03:58:56;12.50;;;9.23;;
17488;SDS011;8861;52.644;4.734;2023-11-22T04:01:23;12.47;;;8.80;;
17488;SDS011;8861;52.644;4.734;2023-11-22T04:03:50;13.13;;;8.83;;
17488;SDS011;8861;52.644;4.734;2023-11-22T04:06:18;13.70;;;9.00;;
17488;SDS011;8861;52.644;4.734;2023-11-22T04:08:47;12.30;;;8.73;;
17488;SDS011;8861;52.644;4.734;2023-11-22T04:11:15;12.13;;;8.53;;
17488;SDS011;8861;52.644;4.734;2023-11-22T04:13:43;13.23;;;9.23;;
17488;SDS011;8861;52.644;4.734;2023-11-22T04:16:10;12.67;;;9.07;;
17488;SDS011;8861;52.644;4.734;2023-11-22T04:18:38;14.93;;;9.20;;
17488;SDS011;8861;52.644;4.734;2023-11-22T04:21:05;12.60;;;8.70;;
17488;SDS011;8861;52.644;4.734;2023-11-22T04:23:32;11.70;;;8.67;;
17488;SDS011;8861;52.644;4.734;2023-11-22T04:26:01;12.73;;;9.00;;
17488;SDS011;8861;52.644;4.734;2023-11-22T04:28:28;14.13;;;9.33;;
17488;SDS011;8861;52.644;4.734;2023-11-22T04:30:55;14.43;;;9.50;;
17488;SDS011;8861;52.644;4.734;2023-11-22T04:33:23;14.03;;;9.37;;
17488;SDS011;8861;52.644;4.734;2023-11-22T04:35:53;14.63;;;8.80;;
17488;SDS011;8861;52.644;4.734;2023-11-22T04:38:20;13.17;;;9.00;;
17488;SDS011;8861;52.644;4.734;2023-11-22T04:40:47;14.10;;;9.03;;
17488;SDS011;8861;52.644;4.734;2023-11-22T04:43:15;13.47;;;8.80;;
17488;SDS011;8861;52.644;4.734;2023-11-22T04:45:42;14.00;;;9.13;;
17488;SDS011;8861;52.644;4.734;2023-11-22T04:48:09;14.57;;;9.87;;
17488;SDS011;8861;52.644;4.734;2023-11-22T04:50:37;13.77;;;9.17;;
17488;SDS011;8861;52.644;4.734;2023-11-22T04:53:03;14.67;;;9.30;;
17488;SDS011;8861;52.644;4.734;2023-11-22T04:55:30;16.57;;;10.20;;
17488;SDS011;8861;52.644;4.734;2023-11-22T04:57:57;18.33;;;10.97;;
17488;SDS011;8861;52.644;4.734;2023-11-22T05:00:25;18.77;;;11.77;;
17488;SDS011;8861;52.644;4.734;2023-11-22T05:02:52;17.70;;;11.40;;
17488;SDS011;8861;52.644;4.734;2023-11-22T05:05:20;18.83;;;11.70;;
17488;SDS011;8861;52.644;4.734;2023-11-22T05:07:47;19.07;;;12.20;;
17488;SDS011;8861;52.644;4.734;2023-11-22T05:10:14;19.90;;;12.33;;
17488;SDS011;8861;52.644;4.734;2023-11-22T05:12:42;20.77;;;13.33;;
17488;SDS011;8861;52.644;4.734;2023-11-22T05:15:09;20.10;;;12.87;;
17488;SDS011;8861;52.644;4.734;2023-11-22T05:17:38;20.33;;;12.67;;
17488;SDS011;8861;52.644;4.734;2023-11-22T05:20:06;24.77;;;14.83;;
17488;SDS011;8861;52.644;4.734;2023-11-22T05:22:34;25.00;;;15.43;;
17488;SDS011;8861;52.644;4.734;2023-11-22T05:25:01;25.67;;;15.47;;
17488;SDS011;8861;52.644;4.734;2023-11-22T05:27:28;26.30;;;15.30;;
17488;SDS011;8861;52.644;4.734;2023-11-22T05:29:56;25.47;;;15.10;;
17488;SDS011;8861;52.644;4.734;2023-11-22T05:32:23;26.63;;;15.33;;
17488;SDS011;8861;52.644;4.734;2023-11-22T05:34:52;25.37;;;15.83;;
17488;SDS011;8861;52.644;4.734;2023-11-22T05:37:20;25.00;;;15.43;;
17488;SDS011;8861;52.644;4.734;2023-11-22T05:39:47;26.57;;;15.70;;
17488;SDS011;8861;52.644;4.734;2023-11-22T05:42:13;29.63;;;16.30;;
17488;SDS011;8861;52.644;4.734;2023-11-22T05:44:40;32.77;;;17.73;;
17488;SDS011;8861;52.644;4.734;2023-11-22T05:47:07;26.27;;;16.03;;
17488;SDS011;8861;52.644;4.734;2023-11-22T05:49:34;31.23;;;17.90;;
17488;SDS011;8861;52.644;4.734;2023-11-22T05:52:03;36.10;;;20.13;;
17488;SDS011;8861;52.644;4.734;2023-11-22T05:54:30;31.40;;;18.27;;
17488;SDS011;8861;52.644;4.734;2023-11-22T05:56:57;32.30;;;18.30;;
17488;SDS011;8861;52.644;4.734;2023-11-22T05:59:24;33.63;;;18.90;;
17488;SDS011;8861;52.644;4.734;2023-11-22T06:01:51;32.07;;;18.77;;
17488;SDS011;8861;52.644;4.734;2023-11-22T06:04:18;36.23;;;18.93;;
17488;SDS011;8861;52.644;4.734;2023-11-22T06:06:45;30.53;;;18.57;;
17488;SDS011;8861;52.644;4.734;2023-11-22T06:09:14;34.20;;;18.23;;
17488;SDS011;8861;52.644;4.734;2023-11-22T06:11:41;32.40;;;18.10;;
17488;SDS011;8861;52.644;4.734;2023-11-22T06:14:08;30.97;;;17.77;;
17488;SDS011;8861;52.644;4.734;2023-11-22T06:16:34;29.63;;;16.93;;
17488;SDS011;8861;52.644;4.734;2023-11-22T06:19:01;31.93;;;17.40;;
17488;SDS011;8861;52.644;4.734;2023-11-22T06:21:28;32.13;;;17.13;;
17488;SDS011;8861;52.644;4.734;2023-11-22T06:23:55;28.80;;;16.33;;
17488;SDS011;8861;52.644;4.734;2023-11-22T06:26:24;28.87;;;16.20;;
17488;SDS011;8861;52.644;4.734;2023-11-22T06:28:51;30.03;;;16.87;;
17488;SDS011;8861;52.644;4.734;2023-11-22T06:31:18;28.60;;;15.57;;
17488;SDS011;8861;52.644;4.734;2023-11-22T06:33:45;28.17;;;16.10;;
17488;SDS011;8861;52.644;4.734;2023-11-22T06:36:12;27.20;;;15.47;;
17488;SDS011;8861;52.644;4.734;2023-11-22T06:38:40;29.50;;;16.70;;
17488;SDS011;8861;52.644;4.734;2023-11-22T06:41:06;26.77;;;15.50;;
17488;SDS011;8861;52.644;4.734;2023-11-22T06:43:34;29.23;;;16.37;;
17488;SDS011;8861;52.644;4.734;2023-11-22T06:46:01;31.73;;;15.87;;
17488;SDS011;8861;52.644;4.734;2023-11-22T06:48:30;33.13;;;17.40;;
17488;SDS011;8861;52.644;4.734;2023-11-22T06:50:58;31.60;;;17.20;;
17488;SDS011;8861;52.644;4.734;2023-11-22T06:53:25;32.77;;;17.73;;
17488;SDS011;8861;52.644;4.734;2023-11-22T06:55:52;28.17;;;16.33;;
17488;SDS011;8861;52.644;4.734;2023-11-22T06:58:19;28.93;;;16.53;;
17488;SDS011;8861;52.644;4.734;2023-11-22T07:00:48;30.53;;;16.67;;
17488;SDS011;8861;52.644;4.734;2023-11-22T07:03:15;30.13;;;16.97;;
17488;SDS011;8861;52.644;4.734;2023-11-22T07:05:42;29.03;;;16.67;;
17488;SDS011;8861;52.644;4.734;2023-11-22T07:08:08;30.23;;;16.53;;
17488;SDS011;8861;52.644;4.734;2023-11-22T07:10:36;30.40;;;16.63;;
17488;SDS011;8861;52.644;4.734;2023-11-22T07:13:03;29.77;;;17.13;;
17488;SDS011;8861;52.644;4.734;2023-11-22T07:15:31;33.57;;;18.50;;
17488;SDS011;8861;52.644;4.734;2023-11-22T07:17:59;32.37;;;17.20;;
17488;SDS011;8861;52.644;4.734;2023-11-22T07:20:26;29.90;;;17.10;;
17488;SDS011;8861;52.644;4.734;2023-11-22T07:22:53;31.57;;;17.67;;
17488;SDS011;8861;52.644;4.734;2023-11-22T07:25:22;29.80;;;16.80;;
17488;SDS011;8861;52.644;4.734;2023-11-22T07:27:51;30.47;;;17.17;;
17488;SDS011;8861;52.644;4.734;2023-11-22T07:30:19;32.37;;;16.83;;
17488;SDS011;8861;52.644;4.734;2023-11-22T07:32:49;29.87;;;16.90;;
17488;SDS011;8861;52.644;4.734;2023-11-22T07:35:20;30.17;;;17.53;;
17488;SDS011;8861;52.644;4.734;2023-11-22T07:37:47;27.83;;;17.03;;
17488;SDS011;8861;52.644;4.734;2023-11-22T07:40:17;29.00;;;16.37;;
17488;SDS011;8861;52.644;4.734;2023-11-22T07:42:44;29.07;;;16.20;;
17488;SDS011;8861;52.644;4.734;2023-11-22T07:45:11;27.70;;;16.10;;
17488;SDS011;8861;52.644;4.734;2023-11-22T07:47:38;28.53;;;16.50;;
17488;SDS011;8861;52.644;4.734;2023-11-22T07:50:07;31.77;;;17.40;;
17488;SDS011;8861;52.644;4.734;2023-11-22T07:52:36;31.90;;;16.53;;
17488;SDS011;8861;52.644;4.734;2023-11-22T07:55:05;32.27;;;17.17;;
17488;SDS011;8861;52.644;4.734;2023-11-22T07:57:33;28.30;;;16.80;;
17488;SDS011;8861;52.644;4.734;2023-11-22T08:00:00;30.70;;;17.70;;
17488;SDS011;8861;52.644;4.734;2023-11-22T08:02:32;30.58;;;18.48;;
17488;SDS011;8861;52.644;4.734;2023-11-22T08:04:59;27.63;;;16.67;;
17488;SDS011;8861;52.644;4.734;2023-11-22T08:07:28;27.10;;;15.67;;
17488;SDS011;8861;52.644;4.734;2023-11-22T08:09:59;26.77;;;16.10;;
17488;SDS011;8861;52.644;4.734;2023-11-22T08:12:34;25.80;;;16.00;;
17488;SDS011;8861;52.644;4.734;2023-11-22T08:15:02;27.73;;;15.90;;
17488;SDS011;8861;52.644;4.734;2023-11-22T08:17:30;31.73;;;16.63;;
17488;SDS011;8861;52.644;4.734;2023-11-22T08:19:58;33.47;;;18.07;;
17488;SDS011;8861;52.644;4.734;2023-11-22T08:22:27;32.00;;;17.50;;
17488;SDS011;8861;52.644;4.734;2023-11-22T08:24:54;37.80;;;18.53;;
17488;SDS011;8861;52.644;4.734;2023-11-22T08:27:24;35.87;;;18.13;;
17488;SDS011;8861;52.644;4.734;2023-11-22T08:29:50;36.60;;;17.80;;
17488;SDS011;8861;52.644;4.734;2023-11-22T08:32:17;34.57;;;18.50;;
17488;SDS011;8861;52.644;4.734;2023-11-22T08:34:48;33.03;;;17.03;;
17488;SDS011;8861;52.644;4.734;2023-11-22T08:37:15;34.13;;;17.10;;
17488;SDS011;8861;52.644;4.734;2023-11-22T08:39:42;34.40;;;17.77;;
17488;SDS011;8861;52.644;4.734;2023-11-22T08:42:09;28.37;;;16.37;;
17488;SDS011;8861;52.644;4.734;2023-11-22T08:44:37;31.90;;;16.97;;
17488;SDS011;8861;52.644;4.734;2023-11-22T08:47:04;30.07;;;17.33;;
17488;SDS011;8861;52.644;4.734;2023-11-22T08:49:31;32.57;;;17.23;;
17488;SDS011;8861;52.644;4.734;2023-11-22T08:51:59;31.77;;;17.37;;
17488;SDS011;8861;52.644;4.734;2023-11-22T08:54:28;33.30;;;17.53;;
17488;SDS011;8861;52.644;4.734;2023-11-22T08:56:55;32.87;;;17.93;;
17488;SDS011;8861;52.644;4.734;2023-11-22T08:59:22;28.23;;;16.73;;
17488;SDS011;8861;52.644;4.734;2023-11-22T09:01:50;30.80;;;16.53;;
17488;SDS011;8861;52.644;4.734;2023-11-22T09:04:17;30.20;;;15.60;;
17488;SDS011;8861;52.644;4.734;2023-11-22T09:06:45;33.07;;;17.20;;
17488;SDS011;8861;52.644;4.734;2023-11-22T09:09:12;28.63;;;16.23;;
17488;SDS011;8861;52.644;4.734;2023-11-22T09:11:41;31.27;;;16.73;;
17488;SDS011;8861;52.644;4.734;2023-11-22T09:14:08;31.07;;;17.20;;
17488;SDS011;8861;52.644;4.734;2023-11-22T09:16:35;30.27;;;16.93;;
17488;SDS011;8861;52.644;4.734;2023-11-22T09:19:05;32.13;;;17.50;;
17488;SDS011;8861;52.644;4.734;2023-11-22T09:21:32;28.33;;;15.77;;
17488;SDS011;8861;52.644;4.734;2023-11-22T09:24:00;32.03;;;17.27;;
17488;SDS011;8861;52.644;4.734;2023-11-22T09:26:27;27.17;;;15.70;;
17488;SDS011;8861;52.644;4.734;2023-11-22T09:28:54;27.53;;;15.13;;
17488;SDS011;8861;52.644;4.734;2023-11-22T09:31:21;26.73;;;15.93;;
17488;SDS011;8861;52.644;4.734;2023-11-22T09:33:48;25.57;;;14.97;;
17488;SDS011;8861;52.644;4.734;2023-11-22T09:36:17;27.83;;;15.53;;
17488;SDS011;8861;52.644;4.734;2023-11-22T09:38:44;28.67;;;16.13;;
17488;SDS011;8861;52.644;4.734;2023-11-22T09:41:12;30.33;;;17.07;;
17488;SDS011;8861;52.644;4.734;2023-11-22T09:43:41;27.70;;;15.87;;
17488;SDS011;8861;52.644;4.734;2023-11-22T09:46:09;27.93;;;16.23;;
17488;SDS011;8861;52.644;4.734;2023-11-22T09:48:37;27.60;;;16.10;;
17488;SDS011;8861;52.644;4.734;2023-11-22T09:51:08;29.77;;;15.87;;
17488;SDS011;8861;52.644;4.734;2023-11-22T09:53:46;28.53;;;15.73;;
17488;SDS011;8861;52.644;4.734;2023-11-22T09:56:18;26.87;;;15.50;;
17488;SDS011;8861;52.644;4.734;2023-11-22T09:58:46;25.80;;;14.90;;
17488;SDS011;8861;52.644;4.734;2023-11-22T10:01:14;27.80;;;16.20;;
17488;SDS011;8861;52.644;4.734;2023-11-22T10:03:43;26.07;;;15.50;;
17488;SDS011;8861;52.644;4.734;2023-11-22T10:06:11;24.57;;;14.37;;
17488;SDS011;8861;52.644;4.734;2023-11-22T10:08:40;24.90;;;14.80;;
17488;SDS011;8861;52.644;4.734;2023-11-22T10:11:08;25.43;;;14.97;;
17488;SDS011;8861;52.644;4.734;2023-11-22T10:13:35;25.60;;;14.93;;
17488;SDS011;8861;52.644;4.734;2023-11-22T10:16:09;28.83;;;16.37;;
17488;SDS011;8861;52.644;4.734;2023-11-22T10:18:39;28.00;;;15.60;;
17488;SDS011;8861;52.644;4.734;2023-11-22T10:21:17;28.93;;;16.30;;
17488;SDS011;8861;52.644;4.734;2023-11-22T10:23:45;28.60;;;17.10;;
17488;SDS011;8861;52.644;4.734;2023-11-22T10:26:15;28.17;;;16.17;;
17488;SDS011;8861;52.644;4.734;2023-11-22T10:28:42;28.17;;;16.07;;
17488;SDS011;8861;52.644;4.734;2023-11-22T10:31:09;27.13;;;16.20;;
17488;SDS011;8861;52.644;4.734;2023-11-22T10:33:38;30.57;;;17.43;;
17488;SDS011;8861;52.644;4.734;2023-11-22T10:36:07;29.17;;;16.47;;
17488;SDS011;8861;52.644;4.734;2023-11-22T10:38:34;27.13;;;15.70;;
17488;SDS011;8861;52.644;4.734;2023-11-22T10:41:03;29.37;;;16.43;;
17488;SDS011;8861;52.644;4.734;2023-11-22T10:43:31;27.50;;;16.27;;
17488;SDS011;8861;52.644;4.734;2023-11-22T10:46:01;29.10;;;16.33;;
17488;SDS011;8861;52.644;4.734;2023-11-22T10:48:30;27.93;;;16.33;;
17488;SDS011;8861;52.644;4.734;2023-11-22T10:50:59;26.87;;;15.60;;
17488;SDS011;8861;52.644;4.734;2023-11-22T10:53:31;26.00;;;15.80;;
17488;SDS011;8861;52.644;4.734;2023-11-22T10:56:02;27.90;;;15.90;;
17488;SDS011;8861;52.644;4.734;2023-11-22T10:58:33;26.13;;;15.87;;
17488;SDS011;8861;52.644;4.734;2023-11-22T11:01:01;25.33;;;15.90;;
17488;SDS011;8861;52.644;4.734;2023-11-22T11:03:32;25.17;;;14.87;;
17488;SDS011;8861;52.644;4.734;2023-11-22T11:06:07;26.87;;;15.83;;
17488;SDS011;8861;52.644;4.734;2023-11-22T11:08:38;28.33;;;15.07;;
17488;SDS011;8861;52.644;4.734;2023-11-22T11:11:05;24.10;;;14.70;;
17488;SDS011;8861;52.644;4.734;2023-11-22T11:13:34;22.60;;;13.47;;
17488;SDS011;8861;52.644;4.734;2023-11-22T11:16:01;22.97;;;13.87;;
17488;SDS011;8861;52.644;4.734;2023-11-22T11:18:28;22.07;;;13.67;;
17488;SDS011;8861;52.644;4.734;2023-11-22T11:20:58;26.13;;;13.37;;
17488;SDS011;8861;52.644;4.734;2023-11-22T11:23:26;27.60;;;14.57;;
17488;SDS011;8861;52.644;4.734;2023-11-22T11:25:54;23.90;;;15.00;;
17488;SDS011;8861;52.644;4.734;2023-11-22T11:28:22;21.43;;;13.03;;
17488;SDS011;8861;52.644;4.734;2023-11-22T11:30:52;23.20;;;14.03;;
17488;SDS011;8861;52.644;4.734;2023-11-22T11:33:20;24.23;;;14.60;;
17488;SDS011;8861;52.644;4.734;2023-11-22T11:35:56;22.67;;;13.47;;
17488;SDS011;8861;52.644;4.734;2023-11-22T11:38:27;21.83;;;13.43;;
17488;SDS011;8861;52.644;4.734;2023-11-22T11:41:00;21.40;;;13.07;;
17488;SDS011;8861;52.644;4.734;2023-11-22T11:43:42;20.93;;;13.30;;
17488;SDS011;8861;52.644;4.734;2023-11-22T11:46:12;24.80;;;14.53;;
17488;SDS011;8861;52.644;4.734;2023-11-22T11:48:42;21.13;;;13.17;;
17488;SDS011;8861;52.644;4.734;2023-11-22T11:51:09;22.37;;;14.40;;
17488;SDS011;8861;52.644;4.734;2023-11-22T11:53:39;21.13;;;13.33;;
17488;SDS011;8861;52.644;4.734;2023-11-22T11:56:07;23.63;;;14.97;;
17488;SDS011;8861;52.644;4.734;2023-11-22T11:58:35;22.17;;;13.20;;
17488;SDS011;8861;52.644;4.734;2023-11-22T12:01:03;20.53;;;13.67;;
17488;SDS011;8861;52.644;4.734;2023-11-22T12:03:31;20.90;;;13.17;;
17488;SDS011;8861;52.644;4.734;2023-11-22T12:05:58;22.17;;;13.93;;
17488;SDS011;8861;52.644;4.734;2023-11-22T12:08:25;20.57;;;13.53;;
17488;SDS011;8861;52.644;4.734;2023-11-22T12:10:55;23.20;;;14.37;;
17488;SDS011;8861;52.644;4.734;2023-11-22T12:13:26;20.27;;;12.70;;
17488;SDS011;8861;52.644;4.734;2023-11-22T12:15:53;24.27;;;13.10;;
17488;SDS011;8861;52.644;4.734;2023-11-22T12:18:21;19.73;;;13.03;;
17488;SDS011;8861;52.644;4.734;2023-11-22T12:20:56;20.07;;;13.20;;
17488;SDS011;8861;52.644;4.734;2023-11-22T12:23:26;22.23;;;13.93;;
17488;SDS011;8861;52.644;4.734;2023-11-22T12:25:54;18.43;;;12.70;;
17488;SDS011;8861;52.644;4.734;2023-11-22T12:28:23;19.53;;;12.40;;
17488;SDS011;8861;52.644;4.734;2023-11-22T12:30:50;18.87;;;12.53;;
17488;SDS011;8861;52.644;4.734;2023-11-22T12:33:17;19.67;;;12.93;;
17488;SDS011;8861;52.644;4.734;2023-11-22T12:35:44;19.77;;;12.30;;
17488;SDS011;8861;52.644;4.734;2023-11-22T12:38:13;19.63;;;12.40;;
17488;SDS011;8861;52.644;4.734;2023-11-22T12:40:43;24.07;;;13.90;;
17488;SDS011;8861;52.644;4.734;2023-11-22T12:43:12;21.67;;;12.70;;
17488;SDS011;8861;52.644;4.734;2023-11-22T12:45:40;20.57;;;12.40;;
17488;SDS011;8861;52.644;4.734;2023-11-22T12:48:21;20.93;;;13.13;;
17488;SDS011;8861;52.644;4.734;2023-11-22T12:50:50;20.87;;;12.63;;
17488;SDS011;8861;52.644;4.734;2023-11-22T12:53:19;21.50;;;13.43;;
17488;SDS011;8861;52.644;4.734;2023-11-22T12:55:47;20.43;;;12.97;;
17488;SDS011;8861;52.644;4.734;2023-11-22T12:58:15;20.13;;;12.83;;
17488;SDS011;8861;52.644;4.734;2023-11-22T13:00:43;22.27;;;13.10;;
17488;SDS011;8861;52.644;4.734;2023-11-22T13:03:11;20.53;;;12.67;;
17488;SDS011;8861;52.644;4.734;2023-11-22T13:05:38;23.50;;;13.63;;
17488;SDS011;8861;52.644;4.734;2023-11-22T13:08:07;21.60;;;13.73;;
17488;SDS011;8861;52.644;4.734;2023-11-22T13:10:37;19.97;;;13.07;;
17488;SDS011;8861;52.644;4.734;2023-11-22T13:13:04;24.50;;;13.63;;
17488;SDS011;8861;52.644;4.734;2023-11-22T13:15:33;21.53;;;13.17;;
17488;SDS011;8861;52.644;4.734;2023-11-22T13:18:01;23.67;;;14.03;;
17488;SDS011;8861;52.644;4.734;2023-11-22T13:20:28;21.20;;;14.10;;
17488;SDS011;8861;52.644;4.734;2023-11-22T13:22:55;24.53;;;15.27;;
17488;SDS011;8861;52.644;4.734;2023-11-22T13:25:25;21.87;;;13.83;;
17488;SDS011;8861;52.644;4.734;2023-11-22T13:28:03;24.63;;;15.30;;
17488;SDS011;8861;52.644;4.734;2023-11-22T13:30:31;22.73;;;14.47;;
17488;SDS011;8861;52.644;4.734;2023-11-22T13:32:58;22.70;;;13.67;;
17488;SDS011;8861;52.644;4.734;2023-11-22T13:35:25;20.97;;;13.43;;
17488;SDS011;8861;52.644;4.734;2023-11-22T13:38:10;24.77;;;14.60;;
17488;SDS011;8861;52.644;4.734;2023-11-22T13:40:37;24.33;;;14.60;;
17488;SDS011;8861;52.644;4.734;2023-11-22T13:43:07;25.63;;;15.33;;
17488;SDS011;8861;52.644;4.734;2023-11-22T13:45:34;26.50;;;15.30;;
17488;SDS011;8861;52.644;4.734;2023-11-22T13:48:03;25.30;;;14.57;;
17488;SDS011;8861;52.644;4.734;2023-11-22T13:50:31;25.43;;;13.47;;
17488;SDS011;8861;52.644;4.734;2023-11-22T13:52:59;21.60;;;13.07;;
17488;SDS011;8861;52.644;4.734;2023-11-22T13:55:26;22.63;;;13.70;;
17488;SDS011;8861;52.644;4.734;2023-11-22T13:57:54;26.17;;;14.27;;
17488;SDS011;8861;52.644;4.734;2023-11-22T14:00:25;21.77;;;12.63;;
17488;SDS011;8861;52.644;4.734;2023-11-22T14:02:55;23.97;;;13.30;;
17488;SDS011;8861;52.644;4.734;2023-11-22T14:05:23;22.93;;;13.77;;
17488;SDS011;8861;52.644;4.734;2023-11-22T14:07:50;21.80;;;13.03;;
17488;SDS011;8861;52.644;4.734;2023-11-22T14:10:17;20.83;;;13.30;;
17488;SDS011;8861;52.644;4.734;2023-11-22T14:12:47;20.30;;;12.60;;
17488;SDS011;8861;52.644;4.734;2023-11-22T14:15:14;18.60;;;11.70;;
17488;SDS011;8861;52.644;4.734;2023-11-22T14:17:43;22.70;;;13.07;;
17488;SDS011;8861;52.644;4.734;2023-11-22T14:20:10;22.63;;;13.80;;
17488;SDS011;8861;52.644;4.734;2023-11-22T14:22:38;20.80;;;12.63;;
17488;SDS011;8861;52.644;4.734;2023-11-22T14:25:07;20.97;;;12.60;;
17488;SDS011;8861;52.644;4.734;2023-11-22T14:27:36;23.97;;;13.43;;
17488;SDS011;8861;52.644;4.734;2023-11-22T14:30:04;22.33;;;12.03;;
17488;SDS011;8861;52.644;4.734;2023-11-22T14:32:33;24.60;;;12.27;;
17488;SDS011;8861;52.644;4.734;2023-11-22T14:35:02;21.23;;;12.00;;
17488;SDS011;8861;52.644;4.734;2023-11-22T14:37:29;21.13;;;11.90;;
17488;SDS011;8861;52.644;4.734;2023-11-22T14:39:56;21.47;;;11.80;;
17488;SDS011;8861;52.644;4.734;2023-11-22T14:42:24;20.73;;;11.80;;
17488;SDS011;8861;52.644;4.734;2023-11-22T14:44:51;26.83;;;13.47;;